createdAt,value
2022-08-10T00:21:07.644Z,93.30
2022-08-10T00:23:35.488Z,92.30
2022-08-10T00:48:29.696Z,93.50
2022-08-10T00:50:58.601Z,93.60
2022-08-10T00:53:27.430Z,93.60
2022-08-10T01:07:18.907Z,93.90
2022-08-10T01:10:12.238Z,94.20
2022-08-10T01:13:08.266Z,94.20
2022-08-10T01:15:54.142Z,95.20
2022-08-10T01:18:23.862Z,92.40
2022-08-10T01:21:04.756Z,99.90
2022-08-10T01:26:37.318Z,95.00
2022-08-10T01:29:26.021Z,93.30
2022-08-10T01:32:01.337Z,95.30
2022-08-10T01:34:37.791Z,95.20
2022-08-10T01:37:12.132Z,95.30
2022-08-10T01:39:43.694Z,95.50
2022-08-10T01:42:16.802Z,95.50
2022-08-10T01:44:52.286Z,95.30
2022-08-10T01:47:42.457Z,95.70
2022-08-10T01:50:54.643Z,95.80
2022-08-10T01:53:40.187Z,95.70
2022-08-10T01:56:10.844Z,95.20
2022-08-10T01:58:39.549Z,95.60
2022-08-10T02:01:09.715Z,95.80
2022-08-10T02:04:03.747Z,95.90
2022-08-10T02:06:28.112Z,95.70
2022-08-10T02:09:06.432Z,95.70
2022-08-10T02:12:06.546Z,95.70
2022-08-10T02:14:25.304Z,95.50
2022-08-10T02:19:30.020Z,95.50
2022-08-10T02:22:35.670Z,95.60
2022-08-10T02:27:17.950Z,95.70
2022-08-10T02:29:49.225Z,96.10
2022-08-10T02:32:30.774Z,95.90
2022-08-10T02:35:08.180Z,95.80
2022-08-10T02:37:44.285Z,95.80
2022-08-10T02:42:18.725Z,95.90
2022-08-10T02:45:29.466Z,95.80
2022-08-10T02:46:14.162Z,95.50
2022-08-10T02:49:00.793Z,96.00
2022-08-10T02:52:06.955Z,95.80
2022-08-10T02:54:47.732Z,95.90
2022-08-10T02:57:20.897Z,96.20
2022-08-10T02:59:53.844Z,94.40
2022-08-10T03:02:30.643Z,96.50
2022-08-10T03:05:04.777Z,96.50
2022-08-10T03:07:43.723Z,96.50
2022-08-10T03:10:16.212Z,96.50
2022-08-10T03:12:44.829Z,96.10
2022-08-10T03:15:15.442Z,96.70
2022-08-10T03:17:57.127Z,96.80
2022-08-10T03:20:39.544Z,96.50
2022-08-10T03:23:25.366Z,96.10
2022-08-10T03:25:55.402Z,96.10
2022-08-10T03:28:24.667Z,97.90
2022-08-10T03:30:53.015Z,99.90
2022-08-10T03:33:22.871Z,97.30
2022-08-10T03:36:41.641Z,98.40
2022-08-10T03:41:15.942Z,99.90
2022-08-10T03:43:48.988Z,97.10
2022-08-10T03:46:19.841Z,97.20
2022-08-10T03:48:50.226Z,96.90
2022-08-10T03:51:19.425Z,97.00
2022-08-10T03:56:39.869Z,96.90
2022-08-10T03:59:15.126Z,96.80
2022-08-10T04:02:45.980Z,96.80
2022-08-10T04:09:43.048Z,96.60
2022-08-10T04:12:18.446Z,99.90
2022-08-10T04:17:56.948Z,96.70
2022-08-10T04:20:18.025Z,99.60
2022-08-10T04:22:48.647Z,96.90
2022-08-10T04:27:45.353Z,96.90
2022-08-10T04:32:41.329Z,97.00
2022-08-10T04:35:10.941Z,99.90
2022-08-10T04:37:46.879Z,99.90
2022-08-10T04:48:42.633Z,97.50
2022-08-10T04:54:04.170Z,97.50
2022-08-10T04:56:35.858Z,97.80
2022-08-10T05:10:01.661Z,99.90
2022-08-10T05:22:37.837Z,96.90
2022-08-10T05:25:06.635Z,99.90
2022-08-10T05:32:55.303Z,97.10
2022-08-10T05:35:21.377Z,96.90
2022-08-10T05:40:38.378Z,96.80
2022-08-10T05:43:06.337Z,97.10
2022-08-10T05:51:09.787Z,96.30
2022-08-10T05:56:26.331Z,96.30
2022-08-10T06:01:25.034Z,97.30
2022-08-10T06:03:58.618Z,97.10
2022-08-10T06:06:31.908Z,97.00
2022-08-10T06:09:00.749Z,97.30
2022-08-10T06:12:27.764Z,97.40
2022-08-10T06:14:36.326Z,97.60
2022-08-10T06:17:05.545Z,96.50
2022-08-10T06:22:01.856Z,96.80
2022-08-10T06:24:31.232Z,96.80
2022-08-10T06:26:59.326Z,96.60
2022-08-10T06:29:29.478Z,97.10
2022-08-10T06:31:57.739Z,96.80
2022-08-10T06:37:00.082Z,96.40
2022-08-10T06:42:29.486Z,96.50
2022-08-10T06:45:12.146Z,96.30
2022-08-10T06:47:49.499Z,96.40
2022-08-10T06:50:45.349Z,96.30
2022-08-10T06:53:15.893Z,96.00
2022-08-10T06:55:55.662Z,95.70
2022-08-10T06:58:29.095Z,95.90
2022-08-10T07:00:57.001Z,96.10
2022-08-10T07:03:31.569Z,96.00
2022-08-10T07:06:01.021Z,96.10
2022-08-10T07:08:31.530Z,96.10
2022-08-10T07:14:14.160Z,95.90
2022-08-10T07:18:44.619Z,95.00
2022-08-10T07:21:13.761Z,95.70
2022-08-10T07:23:57.975Z,94.90
2022-08-10T07:26:29.051Z,95.70
2022-08-10T07:31:56.368Z,95.60
2022-08-10T07:34:28.735Z,95.40
2022-08-10T07:37:02.239Z,95.50
2022-08-10T07:40:02.224Z,95.40
2022-08-10T07:42:21.543Z,95.60
2022-08-10T07:44:50.567Z,94.80
2022-08-10T07:47:54.008Z,99.90
2022-08-10T07:50:14.220Z,94.70
2022-08-10T07:52:42.638Z,95.00
2022-08-10T07:55:16.223Z,94.90
2022-08-10T07:57:46.649Z,94.70
2022-08-10T08:00:14.922Z,94.50
2022-08-10T08:02:51.164Z,92.80
2022-08-10T08:05:51.845Z,94.40
2022-08-10T08:10:38.219Z,94.20
2022-08-10T08:13:06.006Z,94.10
2022-08-10T08:16:17.255Z,94.10
2022-08-10T08:18:25.453Z,94.60
2022-08-10T08:20:54.430Z,93.90
2022-08-10T08:24:05.240Z,92.80
2022-08-10T08:26:11.588Z,93.20
2022-08-10T08:28:45.712Z,93.30
2022-08-10T08:31:17.981Z,91.90
2022-08-10T08:33:47.002Z,93.40
2022-08-10T08:36:17.860Z,93.30
2022-08-10T08:41:32.469Z,92.90
2022-08-10T08:47:00.932Z,91.40
2022-08-10T08:50:07.929Z,93.00
2022-08-10T08:56:04.199Z,92.90
2022-08-10T09:09:05.623Z,99.90
2022-08-10T09:11:59.901Z,93.00
2022-08-10T09:14:58.508Z,93.00
2022-08-10T09:18:06.392Z,92.80
2022-08-10T09:20:51.695Z,91.10
2022-08-10T09:25:54.283Z,92.50
2022-08-10T09:28:32.004Z,92.10
2022-08-10T09:31:22.027Z,91.00
2022-08-10T09:37:14.087Z,91.10
2022-08-10T09:40:06.699Z,91.30
2022-08-10T09:43:25.456Z,91.80
2022-08-10T09:49:09.089Z,91.60
2022-08-10T09:51:56.994Z,99.90
2022-08-10T09:57:46.559Z,90.40
2022-08-10T10:00:20.511Z,92.30
2022-08-10T10:03:24.060Z,92.10
2022-08-10T10:05:58.715Z,92.20
2022-08-10T10:08:43.006Z,99.90
2022-08-10T10:11:28.868Z,91.10
2022-08-10T10:14:17.249Z,99.90
2022-08-10T10:16:57.692Z,90.50
2022-08-10T10:19:43.271Z,82.70
2022-08-10T10:22:31.949Z,98.10
2022-08-10T10:27:36.679Z,83.30
2022-08-10T10:30:10.410Z,83.50
2022-08-10T10:33:05.675Z,82.90
2022-08-10T10:35:47.686Z,98.00
2022-08-10T10:38:16.926Z,81.80
2022-08-10T10:40:55.516Z,81.70
2022-08-10T10:43:42.722Z,97.60
2022-08-10T10:46:15.626Z,79.40
2022-08-10T10:49:07.777Z,78.40
2022-08-10T10:51:48.185Z,96.90
2022-08-10T10:54:44.861Z,99.90
2022-08-10T10:57:58.585Z,84.50
2022-08-10T11:00:15.770Z,85.60
2022-08-10T11:03:04.290Z,84.80
2022-08-10T11:05:42.970Z,90.80
2022-08-10T11:08:34.529Z,87.00
2022-08-10T11:11:20.396Z,87.90
2022-08-10T11:14:26.771Z,83.10
2022-08-10T11:17:35.943Z,96.30
2022-08-10T11:20:22.429Z,90.40
2022-08-10T11:23:02.637Z,97.30
2022-08-10T11:25:37.133Z,84.00
2022-08-10T11:28:11.765Z,85.90
2022-08-10T11:30:57.389Z,83.70
2022-08-10T11:33:36.815Z,86.20
2022-08-10T11:36:27.720Z,77.70
2022-08-10T11:39:48.797Z,71.90
2022-08-10T11:45:16.945Z,96.30
2022-08-10T11:47:51.638Z,97.70
2022-08-10T11:50:29.084Z,97.70
2022-08-10T11:53:02.144Z,97.70
2022-08-10T11:55:32.819Z,82.50
2022-08-10T11:58:28.360Z,83.00
2022-08-10T12:00:59.425Z,79.20
2022-08-10T12:03:34.550Z,89.30
2022-08-10T12:06:04.027Z,72.70
2022-08-10T12:10:02.351Z,94.00
2022-08-10T12:11:25.291Z,92.70
2022-08-10T12:14:20.800Z,71.80
2022-08-10T12:17:00.391Z,78.90
2022-08-10T12:20:01.851Z,98.00
2022-08-10T12:22:33.218Z,90.10
2022-08-10T12:25:04.451Z,98.90
2022-08-10T12:30:07.903Z,73.90
2022-08-10T12:32:37.768Z,92.50
2022-08-10T12:35:31.067Z,72.70
2022-08-10T12:38:06.973Z,69.90
2022-08-10T12:40:42.195Z,72.50
2022-08-10T12:44:04.778Z,78.20
2022-08-10T12:46:27.354Z,93.60
2022-08-10T12:49:17.935Z,70.90
2022-08-10T12:51:58.142Z,70.50
2022-08-10T12:54:32.306Z,90.50
2022-08-10T12:57:04.705Z,71.00
2022-08-10T12:59:32.828Z,92.90
2022-08-10T13:02:14.873Z,72.20
2022-08-10T13:04:43.175Z,77.10
2022-08-10T13:07:11.036Z,95.90
2022-08-10T13:10:17.500Z,96.40
2022-08-10T13:12:48.855Z,95.50
2022-08-10T13:15:48.983Z,88.90
2022-08-10T13:18:19.731Z,80.50
2022-08-10T13:20:52.306Z,80.90
2022-08-10T13:23:31.734Z,80.60
2022-08-10T13:26:01.015Z,83.20
2022-08-10T13:28:45.977Z,83.40
2022-08-10T13:31:18.060Z,83.50
2022-08-10T13:34:40.260Z,83.00
2022-08-10T13:36:42.815Z,96.30
2022-08-10T13:39:11.957Z,78.90
2022-08-10T13:41:42.448Z,71.40
2022-08-10T13:44:12.884Z,68.30
2022-08-10T13:46:47.770Z,78.50
2022-08-10T13:49:15.924Z,69.20
2022-08-10T13:51:57.743Z,91.40
2022-08-10T13:54:29.144Z,92.20
2022-08-10T13:56:57.345Z,89.10
2022-08-10T14:00:34.326Z,75.90
2022-08-10T14:02:25.365Z,76.90
2022-08-10T14:04:54.361Z,77.40
2022-08-10T14:07:22.970Z,78.90
2022-08-10T14:09:52.196Z,74.80
2022-08-10T14:12:22.792Z,95.00
2022-08-10T14:15:02.794Z,95.70
2022-08-10T14:17:30.053Z,78.60
2022-08-10T14:20:03.443Z,72.70
2022-08-10T14:22:42.344Z,86.60
2022-08-10T14:25:12.524Z,82.10
2022-08-10T14:28:03.214Z,75.10
2022-08-10T14:30:32.813Z,92.30
2022-08-10T14:33:04.513Z,72.50
2022-08-10T14:36:21.386Z,71.50
2022-08-10T14:38:28.979Z,73.10
2022-08-10T14:40:59.656Z,63.70
2022-08-10T14:43:39.922Z,64.20
2022-08-10T14:46:19.696Z,70.60
2022-08-10T14:48:50.737Z,74.20
2022-08-10T14:51:25.843Z,83.20
2022-08-10T14:53:57.370Z,81.70
2022-08-10T14:56:30.555Z,92.00
2022-08-10T14:59:07.135Z,89.90
2022-08-10T15:02:00.744Z,94.10
2022-08-10T15:04:26.701Z,70.80
2022-08-10T15:07:12.176Z,88.10
2022-08-10T15:10:00.406Z,66.50
2022-08-10T15:12:38.275Z,59.10
2022-08-10T15:15:09.591Z,61.10
2022-08-10T15:17:39.689Z,89.10
2022-08-10T15:20:21.026Z,67.70
2022-08-10T15:25:25.589Z,70.80
2022-08-10T15:28:16.634Z,70.80
2022-08-10T15:30:53.809Z,66.30
2022-08-10T15:34:05.764Z,61.40
2022-08-10T15:37:02.188Z,60.50
2022-08-10T15:40:22.438Z,61.30
2022-08-10T15:43:05.724Z,86.30
2022-08-10T15:46:15.963Z,65.00
2022-08-10T15:48:48.153Z,89.80
2022-08-10T15:51:52.751Z,59.00
2022-08-10T15:54:33.387Z,78.70
2022-08-10T15:57:10.963Z,82.10
2022-08-10T15:59:44.583Z,57.70
2022-08-10T16:02:17.518Z,86.90
2022-08-10T16:04:58.982Z,64.70
2022-08-10T16:07:46.170Z,90.50
2022-08-10T16:10:27.671Z,90.10
2022-08-10T16:13:00.647Z,85.40
2022-08-10T16:15:30.111Z,61.60
2022-08-10T16:18:08.665Z,62.80
2022-08-10T16:20:55.516Z,78.90
2022-08-10T16:23:31.154Z,88.50
2022-08-10T16:26:23.523Z,90.20
2022-08-10T16:28:55.943Z,90.30
2022-08-10T16:31:26.331Z,67.50
2022-08-10T16:33:56.647Z,70.40
2022-08-10T16:36:33.544Z,77.00
2022-08-10T16:39:01.109Z,80.00
2022-08-10T16:42:00.539Z,62.20
2022-08-10T16:44:22.992Z,62.00
2022-08-10T16:49:19.274Z,62.00
2022-08-10T16:51:49.206Z,90.10
2022-08-10T16:54:27.320Z,67.80
2022-08-10T16:57:03.757Z,69.90
2022-08-10T16:59:35.461Z,92.90
2022-08-10T17:02:04.278Z,93.90
2022-08-10T17:04:33.921Z,74.50
2022-08-10T17:07:06.240Z,76.00
2022-08-10T17:09:35.951Z,94.60
2022-08-10T17:12:13.366Z,74.50
2022-08-10T17:14:42.604Z,86.80
2022-08-10T17:17:17.720Z,94.10
2022-08-10T17:19:45.859Z,71.70
2022-08-10T17:22:21.215Z,90.50
2022-08-10T17:25:11.184Z,72.70
2022-08-10T17:28:05.593Z,71.60
2022-08-10T17:30:35.081Z,71.40
2022-08-10T17:33:20.322Z,71.60
2022-08-10T17:35:52.570Z,83.10
2022-08-10T17:38:25.942Z,70.60
2022-08-10T17:41:08.473Z,82.00
2022-08-10T17:43:46.194Z,65.70
2022-08-10T17:46:26.302Z,63.70
2022-08-10T17:48:54.848Z,64.90
2022-08-10T17:51:27.458Z,64.90
2022-08-10T17:54:00.490Z,77.60
2022-08-10T17:59:01.758Z,70.00
2022-08-10T18:01:41.598Z,83.50
2022-08-10T18:04:21.024Z,74.50
2022-08-10T18:06:57.822Z,69.40
2022-08-10T18:09:33.918Z,69.10
2022-08-10T18:12:36.084Z,66.80
2022-08-10T18:15:12.240Z,68.40
2022-08-10T18:17:44.708Z,91.80
2022-08-10T18:20:14.255Z,80.30
2022-08-10T18:22:48.937Z,68.80
2022-08-10T18:25:22.318Z,87.60
2022-08-10T18:28:04.586Z,92.30
2022-08-10T18:30:35.956Z,71.50
2022-08-10T18:33:08.605Z,72.20
2022-08-10T18:38:04.921Z,71.00
2022-08-10T18:40:36.723Z,69.10
2022-08-10T18:44:05.076Z,67.50
2022-08-10T18:45:56.970Z,66.20
2022-08-10T18:48:33.352Z,64.30
2022-08-10T18:51:05.967Z,64.70
2022-08-10T18:53:50.643Z,72.40
2022-08-10T18:56:59.765Z,86.00
2022-08-10T19:00:07.622Z,61.50
2022-08-10T19:03:10.161Z,59.60
2022-08-10T19:06:20.312Z,86.20
2022-08-10T19:08:48.712Z,62.20
2022-08-10T19:14:10.993Z,86.50
2022-08-10T19:16:56.463Z,59.70
2022-08-10T19:19:26.246Z,86.40
2022-08-10T19:22:31.629Z,60.60
2022-08-10T19:26:42.866Z,59.00
2022-08-10T19:28:56.357Z,85.60
2022-08-10T19:34:18.240Z,60.40
2022-08-10T19:37:15.713Z,59.90
2022-08-10T19:40:01.295Z,59.00
2022-08-10T19:46:00.774Z,84.60
2022-08-10T19:48:44.246Z,84.90
2022-08-10T19:53:59.372Z,84.80
2022-08-10T19:56:43.867Z,62.50
2022-08-10T20:00:16.311Z,84.70
2022-08-10T20:02:28.806Z,59.70
2022-08-10T20:05:22.483Z,61.30
2022-08-10T20:08:04.892Z,60.10
2022-08-10T20:11:01.090Z,60.00
2022-08-10T20:13:47.178Z,60.30
2022-08-10T20:18:46.750Z,67.60
2022-08-10T20:21:21.383Z,70.50
2022-08-10T20:23:55.311Z,73.10
2022-08-10T20:26:29.752Z,60.20
2022-08-10T20:29:58.664Z,85.60
2022-08-10T20:32:37.798Z,60.70
2022-08-10T20:35:46.331Z,61.30
2022-08-10T20:38:40.391Z,62.40
2022-08-10T20:41:21.163Z,87.40
2022-08-10T20:46:22.005Z,88.40
2022-08-10T20:49:29.633Z,67.50
2022-08-10T20:52:02.876Z,64.90
2022-08-10T20:54:36.659Z,64.30
2022-08-10T20:57:54.384Z,81.00
2022-08-10T21:00:23.319Z,73.60
2022-08-10T21:03:06.806Z,64.70
2022-08-10T21:06:06.569Z,90.40
2022-08-10T21:11:31.720Z,66.00
2022-08-10T21:14:27.255Z,88.20
2022-08-10T21:17:38.143Z,69.50
2022-08-10T21:22:54.529Z,68.20
2022-08-10T21:25:29.789Z,70.20
2022-08-10T21:28:03.384Z,77.20
2022-08-10T21:30:45.413Z,69.30
2022-08-10T21:33:56.872Z,90.80
2022-08-10T21:36:42.920Z,71.60
2022-08-10T21:42:04.619Z,72.70
2022-08-10T21:45:11.504Z,70.50
2022-08-10T21:48:17.584Z,74.70
2022-08-10T21:51:24.272Z,93.50
2022-08-10T21:58:00.352Z,93.90
2022-08-10T22:03:39.655Z,73.30
2022-08-10T22:06:28.304Z,74.80
2022-08-10T22:09:23.892Z,71.40
2022-08-10T22:12:24.706Z,74.50
2022-08-10T22:16:10.264Z,73.10
2022-08-10T22:18:53.775Z,73.60
2022-08-10T22:28:07.431Z,93.50
2022-08-10T22:34:54.866Z,71.80
2022-08-10T22:38:07.880Z,76.10
2022-08-10T22:43:47.009Z,76.00
2022-08-10T22:46:39.346Z,76.10
2022-08-10T22:51:50.476Z,94.50
2022-08-10T22:54:50.022Z,75.50
2022-08-10T22:57:36.690Z,74.80
2022-08-10T23:00:30.999Z,73.50
2022-08-10T23:03:22.002Z,73.30
2022-08-10T23:05:57.618Z,74.00
2022-08-10T23:08:33.914Z,74.40
2022-08-10T23:11:08.441Z,73.70
2022-08-10T23:13:43.501Z,74.20
2022-08-10T23:16:36.946Z,74.00
2022-08-10T23:19:41.173Z,77.80
2022-08-10T23:22:13.697Z,74.40
2022-08-10T23:24:52.140Z,73.90
2022-08-10T23:27:39.467Z,74.10
2022-08-10T23:30:18.015Z,92.50
2022-08-10T23:32:50.115Z,75.50
2022-08-10T23:36:29.691Z,76.10
2022-08-10T23:38:08.048Z,76.00
2022-08-10T23:40:36.375Z,75.60
2022-08-10T23:43:05.187Z,76.10
2022-08-10T23:45:53.052Z,76.30
2022-08-10T23:48:26.266Z,77.00
2022-08-10T23:50:59.595Z,77.00
2022-08-10T23:53:33.415Z,77.80
2022-08-10T23:56:15.515Z,77.40
2022-08-10T23:58:45.537Z,77.00
